sensor_id;sensor_type;location;lat;lon;timestamp;temperature;humidity
46900;DHT22;32647;49.382;7.078;2022-11-15T00:02:24;10.80;99.90
46900;DHT22;32647;49.382;7.078;2022-11-15T00:05:10;10.70;99.90
46900;DHT22;32647;49.382;7.078;2022-11-15T00:07:56;10.80;99.90
46900;DHT22;32647;49.382;7.078;2022-11-15T00:10:43;10.80;99.90
46900;DHT22;32647;49.382;7.078;2022-11-15T00:13:29;10.70;99.90
46900;DHT22;32647;49.382;7.078;2022-11-15T00:16:16;10.70;99.90
46900;DHT22;32647;49.382;7.078;2022-11-15T00:19:02;10.70;99.90
46900;DHT22;32647;49.382;7.078;2022-11-15T00:21:48;10.70;99.90
46900;DHT22;32647;49.382;7.078;2022-11-15T00:24:34;10.70;99.90
46900;DHT22;32647;49.382;7.078;2022-11-15T00:27:20;10.70;99.90
46900;DHT22;32647;49.382;7.078;2022-11-15T00:30:06;10.70;99.90
46900;DHT22;32647;49.382;7.078;2022-11-15T00:32:52;10.80;99.90
46900;DHT22;32647;49.382;7.078;2022-11-15T00:35:39;10.80;99.90
46900;DHT22;32647;49.382;7.078;2022-11-15T00:38:25;10.70;99.90
46900;DHT22;32647;49.382;7.078;2022-11-15T00:41:11;10.70;99.90
46900;DHT22;32647;49.382;7.078;2022-11-15T00:43:57;10.70;99.90
46900;DHT22;32647;49.382;7.078;2022-11-15T00:46:43;10.70;99.90
46900;DHT22;32647;49.382;7.078;2022-11-15T00:49:29;10.70;99.90
46900;DHT22;32647;49.382;7.078;2022-11-15T00:52:15;10.70;99.90
46900;DHT22;32647;49.382;7.078;2022-11-15T00:55:01;10.70;99.90
46900;DHT22;32647;49.382;7.078;2022-11-15T00:57:47;10.70;99.90
46900;DHT22;32647;49.382;7.078;2022-11-15T01:00:33;10.70;99.90
46900;DHT22;32647;49.382;7.078;2022-11-15T01:03:19;10.70;99.90
46900;DHT22;32647;49.382;7.078;2022-11-15T01:06:06;10.80;99.90
46900;DHT22;32647;49.382;7.078;2022-11-15T01:08:52;10.90;99.90
46900;DHT22;32647;49.382;7.078;2022-11-15T01:11:38;10.80;99.90
46900;DHT22;32647;49.382;7.078;2022-11-15T01:14:24;10.80;99.90
46900;DHT22;32647;49.382;7.078;2022-11-15T01:17:10;10.80;99.90
46900;DHT22;32647;49.382;7.078;2022-11-15T01:19:56;10.80;99.90
46900;DHT22;32647;49.382;7.078;2022-11-15T01:22:43;10.70;99.90
46900;DHT22;32647;49.382;7.078;2022-11-15T01:25:29;10.70;99.90
46900;DHT22;32647;49.382;7.078;2022-11-15T01:28:15;10.80;99.90
46900;DHT22;32647;49.382;7.078;2022-11-15T01:31:02;10.80;99.90
46900;DHT22;32647;49.382;7.078;2022-11-15T01:33:48;10.80;99.90
46900;DHT22;32647;49.382;7.078;2022-11-15T01:36:34;10.80;99.90
46900;DHT22;32647;49.382;7.078;2022-11-15T08:51:10;10.80;99.90
46900;DHT22;32647;49.382;7.078;2022-11-15T08:53:56;10.80;99.90
46900;DHT22;32647;49.382;7.078;2022-11-15T08:56:42;10.80;99.90
46900;DHT22;32647;49.382;7.078;2022-11-15T08:59:28;10.80;99.90
46900;DHT22;32647;49.382;7.078;2022-11-15T09:02:14;11.00;99.90
46900;DHT22;32647;49.382;7.078;2022-11-15T09:05:00;11.10;99.90
46900;DHT22;32647;49.382;7.078;2022-11-15T09:07:46;11.20;99.90
46900;DHT22;32647;49.382;7.078;2022-11-15T09:10:32;11.20;99.90
46900;DHT22;32647;49.382;7.078;2022-11-15T09:13:18;11.30;99.90
46900;DHT22;32647;49.382;7.078;2022-11-15T09:16:04;11.30;99.90
46900;DHT22;32647;49.382;7.078;2022-11-15T09:18:50;11.30;99.90
46900;DHT22;32647;49.382;7.078;2022-11-15T09:21:36;11.30;99.90
46900;DHT22;32647;49.382;7.078;2022-11-15T09:24:22;11.20;99.90
46900;DHT22;32647;49.382;7.078;2022-11-15T09:27:08;11.20;99.90
46900;DHT22;32647;49.382;7.078;2022-11-15T09:29:54;11.30;99.90
46900;DHT22;32647;49.382;7.078;2022-11-15T09:32:40;11.40;99.90
46900;DHT22;32647;49.382;7.078;2022-11-15T09:35:26;11.40;99.90
46900;DHT22;32647;49.382;7.078;2022-11-15T09:38:12;11.50;99.90
46900;DHT22;32647;49.382;7.078;2022-11-15T09:50:49;11.70;99.90
46900;DHT22;32647;49.382;7.078;2022-11-15T09:53:42;11.80;99.90
46900;DHT22;32647;49.382;7.078;2022-11-15T09:56:36;11.90;99.90
46900;DHT22;32647;49.382;7.078;2022-11-15T10:05:49;12.10;99.90
46900;DHT22;32647;49.382;7.078;2022-11-15T10:11:35;12.30;99.90
46900;DHT22;32647;49.382;7.078;2022-11-15T10:14:23;12.40;99.90
46900;DHT22;32647;49.382;7.078;2022-11-15T10:17:34;12.40;99.90
46900;DHT22;32647;49.382;7.078;2022-11-15T10:20:27;12.40;99.90
46900;DHT22;32647;49.382;7.078;2022-11-15T10:23:17;12.50;99.90
46900;DHT22;32647;49.382;7.078;2022-11-15T10:26:09;12.60;99.90
46900;DHT22;32647;49.382;7.078;2022-11-15T10:28:56;12.60;99.90
46900;DHT22;32647;49.382;7.078;2022-11-15T10:31:42;12.60;99.90
46900;DHT22;32647;49.382;7.078;2022-11-15T10:34:28;12.80;99.90
46900;DHT22;32647;49.382;7.078;2022-11-15T10:37:15;12.80;99.90
46900;DHT22;32647;49.382;7.078;2022-11-15T10:40:23;12.70;99.90
46900;DHT22;32647;49.382;7.078;2022-11-15T10:45:55;12.70;99.90
46900;DHT22;32647;49.382;7.078;2022-11-15T10:52:16;13.10;99.90
46900;DHT22;32647;49.382;7.078;2022-11-15T10:55:27;13.10;99.90
46900;DHT22;32647;49.382;7.078;2022-11-15T11:01:13;13.20;99.90
46900;DHT22;32647;49.382;7.078;2022-11-15T11:04:01;13.10;99.90
46900;DHT22;32647;49.382;7.078;2022-11-15T11:06:51;13.30;99.90
46900;DHT22;32647;49.382;7.078;2022-11-15T11:09:38;13.10;99.90
46900;DHT22;32647;49.382;7.078;2022-11-15T11:12:30;13.00;99.90
46900;DHT22;32647;49.382;7.078;2022-11-15T11:15:17;12.90;99.90
46900;DHT22;32647;49.382;7.078;2022-11-15T11:18:15;12.90;99.90
46900;DHT22;32647;49.382;7.078;2022-11-15T11:21:15;12.90;99.90
46900;DHT22;32647;49.382;7.078;2022-11-15T11:30:12;13.00;99.90
46900;DHT22;32647;49.382;7.078;2022-11-15T11:36:49;13.10;99.90
46900;DHT22;32647;49.382;7.078;2022-11-15T11:39:47;13.20;99.90
46900;DHT22;32647;49.382;7.078;2022-11-15T11:46:31;13.20;99.90
46900;DHT22;32647;49.382;7.078;2022-11-15T11:49:51;13.30;99.90
46900;DHT22;32647;49.382;7.078;2022-11-15T11:52:56;13.50;99.90
46900;DHT22;32647;49.382;7.078;2022-11-15T11:56:04;13.50;99.90
46900;DHT22;32647;49.382;7.078;2022-11-15T11:59:02;13.60;99.90
46900;DHT22;32647;49.382;7.078;2022-11-15T12:01:51;13.50;99.90
46900;DHT22;32647;49.382;7.078;2022-11-15T12:04:40;13.70;99.90
46900;DHT22;32647;49.382;7.078;2022-11-15T12:07:32;13.80;99.90
46900;DHT22;32647;49.382;7.078;2022-11-15T12:10:29;13.80;99.90
46900;DHT22;32647;49.382;7.078;2022-11-15T12:13:19;13.70;99.90
46900;DHT22;32647;49.382;7.078;2022-11-15T12:19:08;13.60;99.90
46900;DHT22;32647;49.382;7.078;2022-11-15T12:22:00;13.70;99.90
46900;DHT22;32647;49.382;7.078;2022-11-15T12:25:02;13.60;99.90
46900;DHT22;32647;49.382;7.078;2022-11-15T12:30:56;13.70;99.90
46900;DHT22;32647;49.382;7.078;2022-11-15T12:33:49;13.80;99.90
46900;DHT22;32647;49.382;7.078;2022-11-15T12:36:38;13.70;99.90
46900;DHT22;32647;49.382;7.078;2022-11-15T12:45:49;13.60;99.90
46900;DHT22;32647;49.382;7.078;2022-11-15T12:52:08;13.50;99.90
46900;DHT22;32647;49.382;7.078;2022-11-15T12:57:29;13.70;99.90
46900;DHT22;32647;49.382;7.078;2022-11-15T13:03:23;13.60;99.90
46900;DHT22;32647;49.382;7.078;2022-11-15T13:06:42;13.40;99.90
46900;DHT22;32647;49.382;7.078;2022-11-15T13:17:58;13.60;99.90
46900;DHT22;32647;49.382;7.078;2022-11-15T13:21:20;13.80;99.90
46900;DHT22;32647;49.382;7.078;2022-11-15T13:24:25;14.00;99.90
46900;DHT22;32647;49.382;7.078;2022-11-15T13:27:15;14.10;99.90
46900;DHT22;32647;49.382;7.078;2022-11-15T13:30:04;14.10;99.90
46900;DHT22;32647;49.382;7.078;2022-11-15T13:32:51;14.00;99.90
46900;DHT22;32647;49.382;7.078;2022-11-15T13:35:46;14.30;99.90
46900;DHT22;32647;49.382;7.078;2022-11-15T13:38:37;14.70;99.90
46900;DHT22;32647;49.382;7.078;2022-11-15T13:41:26;14.50;99.90
46900;DHT22;32647;49.382;7.078;2022-11-15T13:47:16;14.10;99.90
46900;DHT22;32647;49.382;7.078;2022-11-15T13:50:04;13.80;99.90
46900;DHT22;32647;49.382;7.078;2022-11-15T13:52:52;13.60;99.90
46900;DHT22;32647;49.382;7.078;2022-11-15T13:55:39;13.40;99.90
46900;DHT22;32647;49.382;7.078;2022-11-15T13:58:25;13.30;99.90
46900;DHT22;32647;49.382;7.078;2022-11-15T14:01:18;13.30;99.90
46900;DHT22;32647;49.382;7.078;2022-11-15T14:04:06;13.10;99.90
46900;DHT22;32647;49.382;7.078;2022-11-15T14:06:55;12.90;99.90
46900;DHT22;32647;49.382;7.078;2022-11-15T14:09:42;13.00;99.90
46900;DHT22;32647;49.382;7.078;2022-11-15T14:12:32;13.10;99.90
46900;DHT22;32647;49.382;7.078;2022-11-15T14:15:35;13.00;99.90
46900;DHT22;32647;49.382;7.078;2022-11-15T14:18:59;13.00;99.90
46900;DHT22;32647;49.382;7.078;2022-11-15T14:22:23;13.10;99.90
46900;DHT22;32647;49.382;7.078;2022-11-15T14:25:20;13.10;99.90
46900;DHT22;32647;49.382;7.078;2022-11-15T14:31:11;13.10;99.90
46900;DHT22;32647;49.382;7.078;2022-11-15T14:33:58;13.00;99.90
46900;DHT22;32647;49.382;7.078;2022-11-15T14:36:44;13.00;99.90
46900;DHT22;32647;49.382;7.078;2022-11-15T14:39:30;13.00;99.90
46900;DHT22;32647;49.382;7.078;2022-11-15T14:42:17;13.00;99.90
46900;DHT22;32647;49.382;7.078;2022-11-15T14:45:18;12.90;99.90
46900;DHT22;32647;49.382;7.078;2022-11-15T14:48:05;13.00;99.90
46900;DHT22;32647;49.382;7.078;2022-11-15T14:50:51;13.00;99.90
46900;DHT22;32647;49.382;7.078;2022-11-15T14:53:37;12.90;99.90
46900;DHT22;32647;49.382;7.078;2022-11-15T14:56:24;12.70;99.90
46900;DHT22;32647;49.382;7.078;2022-11-15T14:59:10;12.60;99.90
46900;DHT22;32647;49.382;7.078;2022-11-15T15:01:56;12.60;99.90
46900;DHT22;32647;49.382;7.078;2022-11-15T15:04:42;12.60;99.90
46900;DHT22;32647;49.382;7.078;2022-11-15T15:07:28;12.50;99.90
46900;DHT22;32647;49.382;7.078;2022-11-15T15:10:16;12.40;99.90
46900;DHT22;32647;49.382;7.078;2022-11-15T15:13:03;12.30;99.90
46900;DHT22;32647;49.382;7.078;2022-11-15T15:15:50;12.30;99.90
46900;DHT22;32647;49.382;7.078;2022-11-15T15:18:36;12.20;99.90
46900;DHT22;32647;49.382;7.078;2022-11-15T15:21:27;12.20;99.90
46900;DHT22;32647;49.382;7.078;2022-11-15T15:24:14;12.10;99.90
46900;DHT22;32647;49.382;7.078;2022-11-15T15:27:00;12.10;99.90
46900;DHT22;32647;49.382;7.078;2022-11-15T15:29:46;12.10;99.90
46900;DHT22;32647;49.382;7.078;2022-11-15T15:32:32;12.00;99.90
46900;DHT22;32647;49.382;7.078;2022-11-15T15:35:18;12.00;99.90
46900;DHT22;32647;49.382;7.078;2022-11-15T15:38:05;12.00;99.90
46900;DHT22;32647;49.382;7.078;2022-11-15T15:40:51;12.00;99.90
46900;DHT22;32647;49.382;7.078;2022-11-15T15:43:37;11.90;99.90
46900;DHT22;32647;49.382;7.078;2022-11-15T15:46:24;11.90;99.90
46900;DHT22;32647;49.382;7.078;2022-11-15T15:49:10;11.90;99.90
46900;DHT22;32647;49.382;7.078;2022-11-15T15:51:56;11.90;99.90
46900;DHT22;32647;49.382;7.078;2022-11-15T15:54:43;11.90;99.90
46900;DHT22;32647;49.382;7.078;2022-11-15T15:57:29;11.90;99.90
46900;DHT22;32647;49.382;7.078;2022-11-15T16:00:16;11.90;99.90
46900;DHT22;32647;49.382;7.078;2022-11-15T16:03:02;11.80;99.90
46900;DHT22;32647;49.382;7.078;2022-11-15T16:05:51;11.80;99.90
46900;DHT22;32647;49.382;7.078;2022-11-15T16:08:37;11.80;99.90
46900;DHT22;32647;49.382;7.078;2022-11-15T16:11:23;11.70;99.90
46900;DHT22;32647;49.382;7.078;2022-11-15T16:14:09;11.80;99.90
46900;DHT22;32647;49.382;7.078;2022-11-15T16:16:55;11.80;99.90
46900;DHT22;32647;49.382;7.078;2022-11-15T16:19:41;11.70;99.90
46900;DHT22;32647;49.382;7.078;2022-11-15T16:22:27;11.70;99.90
46900;DHT22;32647;49.382;7.078;2022-11-15T16:25:14;11.80;99.90
46900;DHT22;32647;49.382;7.078;2022-11-15T16:28:00;11.70;99.90
46900;DHT22;32647;49.382;7.078;2022-11-15T16:30:47;11.60;99.90
46900;DHT22;32647;49.382;7.078;2022-11-15T16:33:33;11.60;99.90
46900;DHT22;32647;49.382;7.078;2022-11-15T16:36:21;11.60;99.90
46900;DHT22;32647;49.382;7.078;2022-11-15T16:39:11;11.60;99.90
46900;DHT22;32647;49.382;7.078;2022-11-15T16:41:59;11.50;99.90
46900;DHT22;32647;49.382;7.078;2022-11-15T16:44:45;11.50;99.90
46900;DHT22;32647;49.382;7.078;2022-11-15T16:47:31;11.50;99.90
46900;DHT22;32647;49.382;7.078;2022-11-15T16:50:26;11.50;99.90
46900;DHT22;32647;49.382;7.078;2022-11-15T16:53:12;11.50;99.90
46900;DHT22;32647;49.382;7.078;2022-11-15T16:55:59;11.50;99.90
46900;DHT22;32647;49.382;7.078;2022-11-15T16:58:45;11.50;99.90
46900;DHT22;32647;49.382;7.078;2022-11-15T17:01:33;11.50;99.90
46900;DHT22;32647;49.382;7.078;2022-11-15T17:04:20;11.50;99.90
46900;DHT22;32647;49.382;7.078;2022-11-15T17:07:07;11.60;99.90
46900;DHT22;32647;49.382;7.078;2022-11-15T17:09:53;11.60;99.90
46900;DHT22;32647;49.382;7.078;2022-11-15T17:12:39;11.60;99.90
46900;DHT22;32647;49.382;7.078;2022-11-15T17:15:25;11.60;99.90
46900;DHT22;32647;49.382;7.078;2022-11-15T17:18:11;11.60;99.90
46900;DHT22;32647;49.382;7.078;2022-11-15T17:21:08;11.50;99.90
46900;DHT22;32647;49.382;7.078;2022-11-15T17:23:55;11.50;99.90
46900;DHT22;32647;49.382;7.078;2022-11-15T17:26:41;11.50;99.90
46900;DHT22;32647;49.382;7.078;2022-11-15T17:29:27;11.60;99.90
46900;DHT22;32647;49.382;7.078;2022-11-15T17:32:15;11.50;99.90
46900;DHT22;32647;49.382;7.078;2022-11-15T17:35:01;11.50;99.90
46900;DHT22;32647;49.382;7.078;2022-11-15T17:37:47;11.40;99.90
46900;DHT22;32647;49.382;7.078;2022-11-15T17:40:33;11.50;99.90
46900;DHT22;32647;49.382;7.078;2022-11-15T17:43:19;11.50;99.90
46900;DHT22;32647;49.382;7.078;2022-11-15T17:46:07;11.40;99.90
46900;DHT22;32647;49.382;7.078;2022-11-15T17:48:55;11.40;99.90
46900;DHT22;32647;49.382;7.078;2022-11-15T17:51:41;11.50;99.90
46900;DHT22;32647;49.382;7.078;2022-11-15T17:54:27;11.40;99.90
46900;DHT22;32647;49.382;7.078;2022-11-15T17:57:13;11.40;99.90
46900;DHT22;32647;49.382;7.078;2022-11-15T17:59:59;11.30;99.90
46900;DHT22;32647;49.382;7.078;2022-11-15T18:02:45;11.30;99.90
46900;DHT22;32647;49.382;7.078;2022-11-15T18:05:31;11.20;99.90
46900;DHT22;32647;49.382;7.078;2022-11-15T18:08:17;11.10;99.90
46900;DHT22;32647;49.382;7.078;2022-11-15T18:14:00;11.10;99.90
46900;DHT22;32647;49.382;7.078;2022-11-15T18:16:46;11.10;99.90
46900;DHT22;32647;49.382;7.078;2022-11-15T18:19:32;11.00;99.90
46900;DHT22;32647;49.382;7.078;2022-11-15T18:22:19;11.00;99.90
46900;DHT22;32647;49.382;7.078;2022-11-15T18:25:05;11.00;99.90
46900;DHT22;32647;49.382;7.078;2022-11-15T18:27:51;11.00;99.90
46900;DHT22;32647;49.382;7.078;2022-11-15T18:30:39;10.90;99.90
46900;DHT22;32647;49.382;7.078;2022-11-15T18:33:27;10.90;99.90
46900;DHT22;32647;49.382;7.078;2022-11-15T18:36:16;10.90;99.90
46900;DHT22;32647;49.382;7.078;2022-11-15T18:39:03;10.90;99.90
46900;DHT22;32647;49.382;7.078;2022-11-15T18:41:49;10.90;99.90
46900;DHT22;32647;49.382;7.078;2022-11-15T18:44:36;10.90;99.90
46900;DHT22;32647;49.382;7.078;2022-11-15T18:47:22;10.90;99.90
46900;DHT22;32647;49.382;7.078;2022-11-15T18:50:08;10.80;99.90
46900;DHT22;32647;49.382;7.078;2022-11-15T18:52:54;10.80;99.90
46900;DHT22;32647;49.382;7.078;2022-11-15T18:55:39;10.90;99.90
46900;DHT22;32647;49.382;7.078;2022-11-15T18:58:31;10.90;99.90
46900;DHT22;32647;49.382;7.078;2022-11-15T19:01:22;10.80;99.90
46900;DHT22;32647;49.382;7.078;2022-11-15T19:04:10;10.80;99.90
46900;DHT22;32647;49.382;7.078;2022-11-15T19:06:56;10.80;99.90
46900;DHT22;32647;49.382;7.078;2022-11-15T19:09:42;10.80;99.90
46900;DHT22;32647;49.382;7.078;2022-11-15T19:12:28;10.80;99.90
46900;DHT22;32647;49.382;7.078;2022-11-15T19:15:14;10.70;99.90
46900;DHT22;32647;49.382;7.078;2022-11-15T19:18:00;10.80;99.90
46900;DHT22;32647;49.382;7.078;2022-11-15T19:20:46;10.80;99.90
46900;DHT22;32647;49.382;7.078;2022-11-15T19:23:39;10.70;99.90
46900;DHT22;32647;49.382;7.078;2022-11-15T19:26:26;10.70;99.90
46900;DHT22;32647;49.382;7.078;2022-11-15T19:29:12;10.80;99.90
46900;DHT22;32647;49.382;7.078;2022-11-15T19:31:58;10.80;99.90
46900;DHT22;32647;49.382;7.078;2022-11-15T19:34:45;10.80;99.90
46900;DHT22;32647;49.382;7.078;2022-11-15T19:37:31;10.80;99.90
46900;DHT22;32647;49.382;7.078;2022-11-15T19:40:17;10.80;99.90
46900;DHT22;32647;49.382;7.078;2022-11-15T19:43:03;10.80;99.90
46900;DHT22;32647;49.382;7.078;2022-11-15T19:45:57;10.80;99.90
46900;DHT22;32647;49.382;7.078;2022-11-15T19:48:43;10.90;99.90
46900;DHT22;32647;49.382;7.078;2022-11-15T19:51:29;10.80;99.90
46900;DHT22;32647;49.382;7.078;2022-11-15T19:54:15;10.80;99.90
46900;DHT22;32647;49.382;7.078;2022-11-15T19:57:02;10.80;99.90
46900;DHT22;32647;49.382;7.078;2022-11-15T19:59:48;10.80;99.90
46900;DHT22;32647;49.382;7.078;2022-11-15T20:02:34;10.80;99.90
46900;DHT22;32647;49.382;7.078;2022-11-15T20:05:20;10.80;99.90
46900;DHT22;32647;49.382;7.078;2022-11-15T20:08:06;10.70;99.90
46900;DHT22;32647;49.382;7.078;2022-11-15T20:10:52;10.70;99.90
46900;DHT22;32647;49.382;7.078;2022-11-15T20:13:38;10.60;99.90
46900;DHT22;32647;49.382;7.078;2022-11-15T20:16:24;10.70;99.90
46900;DHT22;32647;49.382;7.078;2022-11-15T20:19:10;10.70;99.90
46900;DHT22;32647;49.382;7.078;2022-11-15T20:21:57;10.70;99.90
46900;DHT22;32647;49.382;7.078;2022-11-15T20:24:43;10.70;99.90
46900;DHT22;32647;49.382;7.078;2022-11-15T20:27:29;10.80;99.90
46900;DHT22;32647;49.382;7.078;2022-11-15T20:30:15;10.80;99.90
46900;DHT22;32647;49.382;7.078;2022-11-15T20:33:01;10.80;99.90
46900;DHT22;32647;49.382;7.078;2022-11-15T20:35:48;10.80;99.90
46900;DHT22;32647;49.382;7.078;2022-11-15T20:38:34;10.80;99.90
46900;DHT22;32647;49.382;7.078;2022-11-15T20:41:20;10.70;99.90
46900;DHT22;32647;49.382;7.078;2022-11-15T20:44:06;10.70;99.90
46900;DHT22;32647;49.382;7.078;2022-11-15T20:46:52;10.70;99.90
46900;DHT22;32647;49.382;7.078;2022-11-15T20:49:38;10.60;99.90
46900;DHT22;32647;49.382;7.078;2022-11-15T20:52:24;10.60;99.90
46900;DHT22;32647;49.382;7.078;2022-11-15T20:55:09;10.60;99.90
46900;DHT22;32647;49.382;7.078;2022-11-15T20:57:55;10.60;99.90
46900;DHT22;32647;49.382;7.078;2022-11-15T21:00:42;10.70;99.90
46900;DHT22;32647;49.382;7.078;2022-11-15T21:03:29;10.70;99.90
46900;DHT22;32647;49.382;7.078;2022-11-15T21:06:15;10.60;99.90
46900;DHT22;32647;49.382;7.078;2022-11-15T21:09:02;10.60;99.90
46900;DHT22;32647;49.382;7.078;2022-11-15T21:12:11;10.70;99.90
46900;DHT22;32647;49.382;7.078;2022-11-15T21:14:58;10.70;99.90
46900;DHT22;32647;49.382;7.078;2022-11-15T21:17:44;10.80;99.90
46900;DHT22;32647;49.382;7.078;2022-11-15T21:20:30;10.70;99.90
46900;DHT22;32647;49.382;7.078;2022-11-15T21:23:15;10.80;99.90
46900;DHT22;32647;49.382;7.078;2022-11-15T21:26:01;10.70;99.90
46900;DHT22;32647;49.382;7.078;2022-11-15T21:28:47;10.80;99.90
46900;DHT22;32647;49.382;7.078;2022-11-15T21:31:33;10.70;99.90
46900;DHT22;32647;49.382;7.078;2022-11-15T21:34:19;10.70;99.90
46900;DHT22;32647;49.382;7.078;2022-11-15T21:37:06;10.70;99.90
46900;DHT22;32647;49.382;7.078;2022-11-15T21:39:52;10.70;99.90
46900;DHT22;32647;49.382;7.078;2022-11-15T21:42:38;10.80;99.90
46900;DHT22;32647;49.382;7.078;2022-11-15T21:45:24;10.70;99.90
46900;DHT22;32647;49.382;7.078;2022-11-15T21:48:10;10.70;99.90
46900;DHT22;32647;49.382;7.078;2022-11-15T21:51:00;10.80;99.90
46900;DHT22;32647;49.382;7.078;2022-11-15T21:53:47;10.70;99.90
46900;DHT22;32647;49.382;7.078;2022-11-15T21:56:33;10.70;99.90
46900;DHT22;32647;49.382;7.078;2022-11-15T21:59:19;10.70;99.90
46900;DHT22;32647;49.382;7.078;2022-11-15T22:02:07;10.80;99.90
46900;DHT22;32647;49.382;7.078;2022-11-15T22:05:02;10.80;99.90
46900;DHT22;32647;49.382;7.078;2022-11-15T22:07:48;10.70;99.90
46900;DHT22;32647;49.382;7.078;2022-11-15T22:10:34;10.70;99.90
46900;DHT22;32647;49.382;7.078;2022-11-15T22:13:20;10.70;99.90
46900;DHT22;32647;49.382;7.078;2022-11-15T22:16:06;10.60;99.90
46900;DHT22;32647;49.382;7.078;2022-11-15T22:18:52;10.60;99.90
46900;DHT22;32647;49.382;7.078;2022-11-15T22:21:38;10.70;99.90
46900;DHT22;32647;49.382;7.078;2022-11-15T22:24:25;10.60;99.90
46900;DHT22;32647;49.382;7.078;2022-11-15T22:27:11;10.70;99.90
46900;DHT22;32647;49.382;7.078;2022-11-15T22:29:57;10.70;99.90
46900;DHT22;32647;49.382;7.078;2022-11-15T22:32:43;10.70;99.90
46900;DHT22;32647;49.382;7.078;2022-11-15T22:35:29;10.70;99.90
46900;DHT22;32647;49.382;7.078;2022-11-15T22:38:15;10.60;99.90
46900;DHT22;32647;49.382;7.078;2022-11-15T22:41:01;10.70;99.90
46900;DHT22;32647;49.382;7.078;2022-11-15T22:43:47;10.60;99.90
46900;DHT22;32647;49.382;7.078;2022-11-15T22:46:33;10.70;99.90
46900;DHT22;32647;49.382;7.078;2022-11-15T22:49:19;10.60;99.90
46900;DHT22;32647;49.382;7.078;2022-11-15T22:52:05;10.60;99.90
46900;DHT22;32647;49.382;7.078;2022-11-15T22:54:51;10.60;99.90
46900;DHT22;32647;49.382;7.078;2022-11-15T22:57:37;10.60;99.90
46900;DHT22;32647;49.382;7.078;2022-11-15T23:00:23;10.60;99.90
46900;DHT22;32647;49.382;7.078;2022-11-15T23:03:09;10.60;99.90
46900;DHT22;32647;49.382;7.078;2022-11-15T23:06:04;10.50;99.90
46900;DHT22;32647;49.382;7.078;2022-11-15T23:08:50;10.60;99.90
46900;DHT22;32647;49.382;7.078;2022-11-15T23:11:36;10.60;99.90
46900;DHT22;32647;49.382;7.078;2022-11-15T23:14:40;10.50;99.90
46900;DHT22;32647;49.382;7.078;2022-11-15T23:17:26;10.50;99.90
46900;DHT22;32647;49.382;7.078;2022-11-15T23:20:12;10.50;99.90
46900;DHT22;32647;49.382;7.078;2022-11-15T23:22:58;10.50;99.90
46900;DHT22;32647;49.382;7.078;2022-11-15T23:25:44;10.50;99.90
46900;DHT22;32647;49.382;7.078;2022-11-15T23:28:32;10.50;99.90
46900;DHT22;32647;49.382;7.078;2022-11-15T23:31:18;10.60;99.90
46900;DHT22;32647;49.382;7.078;2022-11-15T23:34:23;10.60;99.90
46900;DHT22;32647;49.382;7.078;2022-11-15T23:37:11;10.60;99.90
46900;DHT22;32647;49.382;7.078;2022-11-15T23:39:58;10.60;99.90
46900;DHT22;32647;49.382;7.078;2022-11-15T23:42:44;10.60;99.90
46900;DHT22;32647;49.382;7.078;2022-11-15T23:45:30;10.60;99.90
46900;DHT22;32647;49.382;7.078;2022-11-15T23:48:16;10.60;99.90
46900;DHT22;32647;49.382;7.078;2022-11-15T23:51:02;10.60;99.90
46900;DHT22;32647;49.382;7.078;2022-11-15T23:53:48;10.60;99.90
46900;DHT22;32647;49.382;7.078;2022-11-15T23:56:34;10.60;99.90
46900;DHT22;32647;49.382;7.078;2022-11-15T23:59:20;10.60;99.90
